createdAt,value
2019-04-23T00:04:23.974Z,4.03
2019-04-23T00:07:06.274Z,4.30
2019-04-23T00:09:32.858Z,4.70
2019-04-23T00:11:59.946Z,4.72
2019-04-23T00:14:38.006Z,4.50
2019-04-23T00:16:58.510Z,5.00
2019-04-23T00:19:37.112Z,4.60
2019-04-23T00:22:07.318Z,4.45
2019-04-23T00:25:09.752Z,4.92
2019-04-23T00:29:46.213Z,5.23
2019-04-23T00:32:15.366Z,5.00
2019-04-23T00:34:49.653Z,5.72
2019-04-23T00:37:18.873Z,5.30
2019-04-23T00:39:51.488Z,5.08
2019-04-23T00:42:14.873Z,5.65
2019-04-23T00:44:48.123Z,5.42
2019-04-23T00:47:22.386Z,4.73
2019-04-23T00:49:53.365Z,5.10
2019-04-23T00:54:52.843Z,5.37
2019-04-23T00:57:24.169Z,5.33
2019-04-23T00:59:53.655Z,5.90
2019-04-23T01:02:18.358Z,5.20
2019-04-23T01:04:52.764Z,5.42
2019-04-23T01:07:18.779Z,5.40
2019-04-23T01:09:56.187Z,5.22
2019-04-23T01:12:27.185Z,5.50
2019-04-23T01:14:53.818Z,4.83
2019-04-23T01:17:30.267Z,5.03
2019-04-23T01:19:58.043Z,5.13
2019-04-23T01:22:06.459Z,5.05
2019-04-23T01:24:41.882Z,5.40
2019-04-23T01:27:44.572Z,5.17
2019-04-23T01:30:15.823Z,5.28
2019-04-23T01:32:36.557Z,5.55
2019-04-23T01:35:21.948Z,4.78
2019-04-23T01:37:43.361Z,5.08
2019-04-23T01:45:21.787Z,5.55
2019-04-23T01:47:46.046Z,4.87
2019-04-23T01:55:21.281Z,5.30
2019-04-23T01:57:58.521Z,5.95
2019-04-23T02:02:49.944Z,5.05
2019-04-23T02:05:22.884Z,5.22
2019-04-23T02:07:50.486Z,5.60
2019-04-23T02:10:39.479Z,4.70
2019-04-23T02:15:16.917Z,5.08
2019-04-23T02:17:52.114Z,4.78
2019-04-23T02:20:23.747Z,5.60
2019-04-23T02:25:39.664Z,5.22
2019-04-23T02:28:04.803Z,5.33
2019-04-23T02:30:57.870Z,5.62
2019-04-23T02:33:29.438Z,5.67
2019-04-23T02:38:44.303Z,6.40
2019-04-23T02:40:51.082Z,5.90
2019-04-23T02:45:43.990Z,6.20
2019-04-23T02:48:10.753Z,5.58
2019-04-23T02:55:43.746Z,8.08
2019-04-23T02:58:11.202Z,6.95
2019-04-23T03:05:45.991Z,5.95
2019-04-23T03:08:24.514Z,6.17
2019-04-23T03:10:55.208Z,6.10
2019-04-23T03:13:44.582Z,6.37
2019-04-23T03:16:04.476Z,6.60
2019-04-23T03:18:39.817Z,6.72
2019-04-23T03:24:01.565Z,6.30
2019-04-23T03:35:08.856Z,5.55
2019-04-23T03:36:56.455Z,6.12
2019-04-23T03:39:32.535Z,5.70
2019-04-23T03:43:51.530Z,5.85
2019-04-23T03:48:57.082Z,6.20
2019-04-23T03:51:42.699Z,6.28
2019-04-23T03:56:52.507Z,5.85
2019-04-23T03:59:11.913Z,5.97
2019-04-23T04:01:40.957Z,7.10
2019-04-23T04:04:26.923Z,6.03
2019-04-23T04:06:45.453Z,6.65
2019-04-23T04:11:36.388Z,6.42
2019-04-23T04:14:21.093Z,6.90
2019-04-23T04:16:42.544Z,7.70
2019-04-23T04:19:16.785Z,5.87
2019-04-23T04:21:44.629Z,6.10
2019-04-23T04:26:53.307Z,5.93
2019-04-23T04:31:47.741Z,6.50
2019-04-23T04:34:43.828Z,6.47
2019-04-23T04:36:58.548Z,5.85
2019-04-23T04:39:17.788Z,7.08
2019-04-23T04:41:55.416Z,7.15
2019-04-23T04:49:44.112Z,6.50
2019-04-23T04:52:01.096Z,6.32
2019-04-23T04:54:21.552Z,6.05
2019-04-23T04:56:52.706Z,6.70
2019-04-23T04:59:39.753Z,6.90
2019-04-23T05:02:01.159Z,7.42
2019-04-23T05:04:32.615Z,7.08
2019-04-23T05:07:10.229Z,7.60
2019-04-23T05:14:26.939Z,8.33
2019-04-23T05:16:50.705Z,8.43
2019-04-23T05:19:31.612Z,9.20
2019-04-23T05:21:58.761Z,9.80
2019-04-23T05:24:30.665Z,9.48
2019-04-23T05:26:50.823Z,8.93
2019-04-23T05:29:14.799Z,9.80
2019-04-23T05:31:53.197Z,8.00
2019-04-23T05:34:24.651Z,7.35
2019-04-23T05:37:00.286Z,7.67
2019-04-23T05:39:29.103Z,7.00
2019-04-23T05:41:55.852Z,7.72
2019-04-23T05:44:29.699Z,6.85
2019-04-23T05:47:11.812Z,7.47
2019-04-23T05:49:27.897Z,7.25
2019-04-23T05:52:04.471Z,7.53
2019-04-23T05:54:27.774Z,7.40
2019-04-23T05:56:58.420Z,7.83
2019-04-23T05:59:41.909Z,7.10
2019-04-23T06:01:57.006Z,6.87
2019-04-23T06:04:30.660Z,7.65
2019-04-23T06:07:15.127Z,8.38
2019-04-23T06:09:31.177Z,7.57
2019-04-23T06:12:01.412Z,7.57
2019-04-23T06:17:12.541Z,8.10
2019-04-23T06:19:59.699Z,8.00
2019-04-23T06:24:39.844Z,8.33
2019-04-23T06:27:08.243Z,7.83
2019-04-23T06:29:49.896Z,8.53
2019-04-23T06:32:07.927Z,8.65
2019-04-23T06:34:38.255Z,9.47
2019-04-23T06:37:14.705Z,8.90
2019-04-23T06:42:09.590Z,8.95
2019-04-23T06:44:45.723Z,9.03
2019-04-23T06:47:17.043Z,8.40
2019-04-23T06:49:51.308Z,9.40
2019-04-23T06:52:19.125Z,9.65
2019-04-23T06:54:54.387Z,9.60
2019-04-23T06:57:17.849Z,8.73
2019-04-23T06:59:50.673Z,9.37
2019-04-23T07:02:23.901Z,9.75
2019-04-23T07:05:02.240Z,10.45
2019-04-23T07:09:52.754Z,11.20
2019-04-23T07:12:21.991Z,9.63
2019-04-23T07:17:16.727Z,10.32
2019-04-23T07:19:48.383Z,10.58
2019-04-23T07:24:55.781Z,10.70
2019-04-23T07:27:31.314Z,11.37
2019-04-23T07:29:58.541Z,11.60
2019-04-23T07:32:22.933Z,12.10
2019-04-23T07:35:00.910Z,12.03
2019-04-23T07:37:23.000Z,11.53
2019-04-23T07:40:23.113Z,12.23
2019-04-23T07:42:37.237Z,13.58
2019-04-23T07:45:12.400Z,11.85
2019-04-23T07:47:48.290Z,13.48
2019-04-23T07:52:50.696Z,12.77
2019-04-23T07:55:20.114Z,12.73
2019-04-23T07:57:40.217Z,11.57
2019-04-23T08:00:22.941Z,11.70
2019-04-23T08:02:44.133Z,11.48
2019-04-23T08:05:22.495Z,10.85
2019-04-23T08:07:44.134Z,9.40
2019-04-23T08:10:14.056Z,9.60
2019-04-23T08:12:46.933Z,9.40
2019-04-23T08:15:18.138Z,9.63
2019-04-23T08:17:43.446Z,9.43
2019-04-23T08:20:11.165Z,8.43
2019-04-23T08:22:45.795Z,8.60
2019-04-23T08:25:17.780Z,8.27
2019-04-23T08:27:53.471Z,8.05
2019-04-23T08:30:17.460Z,7.53
2019-04-23T08:32:53.941Z,7.25
2019-04-23T08:35:23.138Z,7.15
2019-04-23T08:38:11.576Z,7.67
2019-04-23T08:45:35.378Z,7.42
2019-04-23T08:48:21.767Z,7.62
2019-04-23T08:50:44.940Z,6.47
2019-04-23T08:53:34.234Z,6.37
2019-04-23T08:55:49.885Z,6.90
2019-04-23T08:58:31.650Z,7.30
2019-04-23T09:00:51.815Z,7.25
2019-04-23T09:05:57.642Z,6.73
2019-04-23T09:10:56.763Z,6.90
2019-04-23T09:15:56.592Z,6.70
2019-04-23T09:20:52.986Z,6.67
2019-04-23T09:23:32.992Z,6.10
2019-04-23T09:25:55.147Z,6.42
2019-04-23T09:28:38.506Z,5.90
2019-04-23T09:31:05.194Z,6.37
2019-04-23T09:33:42.879Z,5.90
2019-04-23T09:36:08.309Z,6.47
2019-04-23T09:38:41.427Z,5.55
2019-04-23T09:41:27.403Z,6.80
2019-04-23T09:43:52.159Z,6.03
2019-04-23T09:46:24.365Z,6.12
2019-04-23T09:48:58.218Z,5.75
2019-04-23T09:51:25.492Z,5.58
2019-04-23T09:53:51.345Z,5.78
2019-04-23T09:56:26.477Z,5.35
2019-04-23T09:59:02.422Z,6.33
2019-04-23T10:03:49.372Z,6.12
2019-04-23T10:06:12.455Z,5.75
2019-04-23T10:08:42.116Z,5.97
2019-04-23T10:11:07.464Z,4.53
2019-04-23T10:13:36.501Z,6.03
2019-04-23T10:16:06.856Z,5.70
2019-04-23T10:18:37.226Z,5.65
2019-04-23T10:21:07.616Z,6.08
2019-04-23T10:23:37.030Z,5.63
2019-04-23T10:26:06.283Z,5.05
2019-04-23T10:28:38.174Z,5.62
2019-04-23T10:31:07.236Z,5.62
2019-04-23T10:33:35.980Z,4.78
2019-04-23T10:36:10.753Z,5.62
2019-04-23T10:38:36.394Z,5.47
2019-04-23T10:41:06.398Z,5.58
2019-04-23T10:43:39.160Z,5.67
2019-04-23T10:46:38.047Z,5.20
2019-04-23T10:56:59.001Z,5.55
2019-04-23T11:07:26.930Z,5.70
2019-04-23T11:09:55.808Z,5.22
2019-04-23T11:12:32.078Z,5.45
2019-04-23T11:14:58.235Z,5.30
2019-04-23T11:17:36.437Z,5.28
2019-04-23T11:20:07.772Z,4.93
2019-04-23T11:22:42.495Z,5.75
2019-04-23T11:25:04.212Z,5.53
2019-04-23T11:27:31.319Z,5.67
2019-04-23T11:30:00.125Z,5.00
2019-04-23T11:35:11.499Z,5.70
2019-04-23T11:37:41.201Z,5.45
2019-04-23T11:40:02.842Z,5.28
2019-04-23T11:42:26.245Z,6.10
2019-04-23T11:45:19.258Z,5.55
2019-04-23T11:50:16.221Z,5.72
2019-04-23T11:52:36.659Z,5.50
2019-04-23T11:55:05.298Z,5.73
2019-04-23T11:57:40.803Z,5.58
2019-04-23T12:00:01.095Z,5.17
2019-04-23T12:02:51.601Z,5.28
2019-04-23T12:05:26.546Z,5.63
2019-04-23T12:08:07.346Z,5.37
2019-04-23T12:11:10.312Z,5.67
2019-04-23T12:13:14.991Z,5.05
2019-04-23T12:15:37.556Z,5.55
2019-04-23T12:18:10.102Z,5.70
2019-04-23T12:20:41.303Z,5.60
2019-04-23T12:23:25.944Z,5.30
2019-04-23T12:25:48.432Z,5.85
2019-04-23T12:28:14.176Z,6.20
2019-04-23T12:30:48.636Z,5.58
2019-04-23T12:33:23.420Z,5.42
2019-04-23T12:35:42.316Z,5.83
2019-04-23T12:40:51.202Z,5.63
2019-04-23T12:43:20.690Z,5.20
2019-04-23T12:48:36.828Z,5.33
2019-04-23T12:55:54.178Z,5.37
2019-04-23T13:00:51.412Z,5.70
2019-04-23T13:05:50.586Z,5.60
2019-04-23T13:08:33.691Z,5.42
2019-04-23T13:10:58.550Z,5.58
2019-04-23T13:15:51.957Z,5.70
2019-04-23T13:18:34.742Z,5.42
2019-04-23T13:21:00.095Z,5.17
2019-04-23T13:23:32.596Z,5.70
2019-04-23T13:28:35.335Z,5.20
2019-04-23T13:31:08.552Z,5.50
2019-04-23T13:33:40.984Z,5.27
2019-04-23T13:36:10.756Z,5.23
2019-04-23T13:41:09.073Z,5.20
2019-04-23T13:48:31.505Z,5.37
2019-04-23T13:51:19.774Z,5.08
2019-04-23T13:53:46.688Z,5.13
2019-04-23T13:56:11.378Z,4.62
2019-04-23T13:58:50.195Z,5.03
2019-04-23T14:03:45.419Z,4.60
2019-04-23T14:08:53.804Z,5.22
2019-04-23T14:11:20.954Z,5.15
2019-04-23T14:13:52.053Z,4.85
2019-04-23T14:16:21.266Z,5.10
2019-04-23T14:24:04.711Z,4.60
2019-04-23T14:28:44.892Z,4.72
2019-04-23T14:31:31.718Z,4.90
2019-04-23T14:34:00.109Z,5.22
2019-04-23T14:36:39.310Z,5.00
2019-04-23T14:41:24.917Z,5.00
2019-04-23T14:49:01.303Z,5.10
2019-04-23T14:51:32.040Z,5.10
2019-04-23T14:53:55.070Z,5.05
2019-04-23T14:56:27.697Z,4.53
2019-04-23T14:59:03.672Z,5.20
2019-04-23T15:09:09.300Z,4.95
2019-04-23T15:14:01.970Z,4.53
2019-04-23T15:16:39.618Z,4.50
2019-04-23T15:19:10.929Z,4.90
2019-04-23T15:21:49.510Z,4.37
2019-04-23T15:24:25.277Z,4.60
2019-04-23T15:28:44.151Z,4.25
2019-04-23T15:31:39.533Z,3.97
2019-04-23T15:34:14.165Z,4.60
2019-04-23T15:39:24.392Z,4.13
2019-04-23T15:41:59.238Z,4.42
2019-04-23T15:44:10.454Z,3.97
2019-04-23T15:46:39.488Z,4.25
2019-04-23T15:49:18.130Z,4.15
2019-04-23T15:51:48.255Z,4.10
2019-04-23T15:54:13.730Z,4.03
2019-04-23T15:56:47.232Z,4.62
2019-04-23T16:03:45.377Z,4.15
2019-04-23T16:06:16.559Z,4.45
2019-04-23T16:09:06.424Z,4.53
2019-04-23T16:11:43.917Z,4.30
2019-04-23T16:14:28.169Z,4.58
2019-04-23T16:16:46.398Z,4.83
2019-04-23T16:19:22.026Z,4.33
2019-04-23T16:22:01.585Z,4.60
2019-04-23T16:24:26.425Z,4.90
2019-04-23T16:26:55.904Z,4.28
2019-04-23T16:29:34.510Z,4.75
2019-04-23T16:34:30.504Z,4.67
2019-04-23T16:39:21.659Z,4.67
2019-04-23T16:42:01.827Z,5.53
2019-04-23T16:44:36.374Z,4.83
2019-04-23T16:47:06.738Z,5.00
2019-04-23T16:49:33.125Z,5.35
2019-04-23T16:51:57.539Z,5.03
2019-04-23T16:54:32.616Z,5.40
2019-04-23T16:59:42.634Z,5.47
2019-04-23T17:04:30.321Z,4.95
2019-04-23T17:09:42.450Z,5.50
2019-04-23T17:12:06.433Z,5.40
2019-04-23T17:14:23.150Z,4.92
2019-04-23T17:16:53.447Z,5.22
2019-04-23T17:19:27.963Z,5.87
2019-04-23T17:22:04.553Z,5.92
2019-04-23T17:24:53.677Z,5.72
2019-04-23T17:27:08.469Z,5.85
2019-04-23T17:29:35.176Z,5.75
2019-04-23T17:32:19.699Z,5.60
2019-04-23T17:35:05.247Z,6.40
2019-04-23T17:37:35.153Z,6.00
2019-04-23T17:40:03.565Z,6.47
2019-04-23T17:45:21.117Z,5.95
2019-04-23T17:47:35.244Z,6.33
2019-04-23T17:50:07.155Z,6.00
2019-04-23T17:52:37.287Z,6.50
2019-04-23T17:55:13.357Z,7.50
2019-04-23T17:57:37.670Z,5.90
2019-04-23T18:00:17.880Z,6.13
2019-04-23T18:12:45.296Z,6.50
2019-04-23T18:15:14.430Z,6.12
2019-04-23T18:17:45.259Z,6.05
2019-04-23T18:20:17.869Z,6.12
2019-04-23T18:22:56.801Z,5.95
2019-04-23T18:25:26.180Z,6.30
2019-04-23T18:30:26.447Z,6.55
2019-04-23T18:33:38.078Z,6.10
2019-04-23T18:35:29.385Z,6.62
2019-04-23T18:38:06.996Z,6.25
2019-04-23T18:40:41.984Z,6.28
2019-04-23T18:43:11.647Z,6.08
2019-04-23T18:48:38.894Z,6.30
2019-04-23T18:51:01.115Z,6.50
2019-04-23T18:53:37.289Z,6.58
2019-04-23T18:56:11.305Z,6.10
2019-04-23T18:58:34.435Z,6.62
2019-04-23T19:01:05.079Z,6.28
2019-04-23T19:06:13.276Z,6.37
2019-04-23T19:09:03.149Z,5.95
2019-04-23T19:11:44.539Z,6.57
2019-04-23T19:14:10.904Z,6.90
2019-04-23T19:16:50.586Z,6.95
2019-04-23T19:19:11.601Z,6.68
2019-04-23T19:22:12.352Z,7.22
2019-04-23T19:24:33.083Z,6.37
2019-04-23T19:27:10.880Z,6.90
2019-04-23T19:29:42.739Z,6.60
2019-04-23T19:31:58.330Z,6.42
2019-04-23T19:37:18.648Z,6.70
2019-04-23T19:42:03.901Z,6.30
2019-04-23T19:44:38.778Z,6.75
2019-04-23T19:49:37.022Z,6.70
2019-04-23T19:52:03.040Z,6.40
2019-04-23T19:54:50.856Z,6.76
2019-04-23T19:57:23.578Z,6.83
2019-04-23T20:02:15.145Z,6.80
2019-04-23T20:04:41.170Z,6.53
2019-04-23T20:09:48.592Z,6.22
2019-04-23T20:12:28.280Z,6.92
2019-04-23T20:14:48.810Z,6.60
2019-04-23T20:17:31.856Z,7.20
2019-04-23T20:19:44.851Z,6.92
2019-04-23T20:27:17.721Z,6.37
2019-04-23T20:30:37.985Z,6.42
2019-04-23T20:35:08.479Z,6.37
2019-04-23T20:38:02.554Z,6.33
2019-04-23T20:40:08.127Z,6.37
2019-04-23T20:42:35.028Z,6.47
2019-04-23T20:45:07.827Z,6.53
2019-04-23T20:47:37.337Z,6.83
2019-04-23T20:49:56.664Z,6.60
2019-04-23T20:52:35.450Z,6.17
2019-04-23T20:55:08.575Z,6.37
2019-04-23T21:00:34.100Z,6.50
2019-04-23T21:05:21.652Z,7.10
2019-04-23T21:08:13.848Z,6.72
2019-04-23T21:13:12.146Z,6.44
2019-04-23T21:15:32.816Z,6.35
2019-04-23T21:18:06.225Z,6.25
2019-04-23T21:25:44.205Z,6.78
2019-04-23T21:38:49.015Z,7.15
2019-04-23T21:41:39.385Z,6.70
2019-04-23T21:46:22.151Z,7.12
2019-04-23T21:51:30.872Z,6.43
2019-04-23T21:53:53.127Z,6.15
2019-04-23T21:56:26.135Z,6.30
2019-04-23T22:01:32.134Z,6.67
2019-04-23T22:04:08.535Z,6.57
2019-04-23T22:06:36.953Z,7.37
2019-04-23T22:09:10.333Z,7.17
2019-04-23T22:11:49.616Z,6.62
2019-04-23T22:16:41.036Z,6.53
2019-04-23T22:21:42.355Z,6.53
2019-04-23T22:26:35.361Z,6.90
2019-04-23T22:29:14.350Z,6.53
2019-04-23T22:34:22.207Z,6.17
2019-04-23T22:36:39.280Z,7.07
2019-04-23T22:39:11.634Z,7.00
2019-04-23T22:41:43.710Z,7.15
2019-04-23T22:44:09.542Z,6.90
2019-04-23T22:49:29.023Z,7.28
2019-04-23T22:54:11.835Z,7.10
2019-04-23T22:56:53.643Z,7.78
2019-04-23T23:06:57.271Z,8.20
2019-04-23T23:16:50.421Z,7.15
2019-04-23T23:19:23.723Z,7.92
2019-04-23T23:24:18.391Z,7.65
2019-04-23T23:29:21.941Z,8.33
2019-04-23T23:34:27.857Z,8.15
2019-04-23T23:37:00.172Z,8.28
2019-04-23T23:39:27.553Z,7.53
2019-04-23T23:41:57.011Z,8.13
2019-04-23T23:47:03.038Z,8.00
2019-04-23T23:49:27.816Z,8.60
2019-04-23T23:51:57.201Z,8.98
2019-04-23T23:54:27.582Z,8.18
2019-04-23T23:57:09.195Z,8.37
2019-04-23T23:59:38.863Z,7.70
